Time;durP1;ratioP1;P1;durP2;ratioP2;P2;SDS_P1;SDS_P2;PMS_P1;PMS_P2;Temp;Humidity;BMP_temperature;BMP_pressure;BME280_temperature;BME280_humidity;BME280_pressure;Samples;Min_cycle;Max_cycle;Signal;HPM_P1;HPM_P2
2022/10/05 00:00:03;;;;;;;2.63;2.20;;;21.00;54.60;;;;;;6167103;23;20504;-91
2022/10/05 00:02:31;;;;;;;3.00;1.97;;;21.00;54.60;;;;;;6167984;23;20242;-91
2022/10/05 00:04:58;;;;;;;3.93;2.03;;;21.00;54.60;;;;;;6167136;23;20380;-91
2022/10/05 00:07:28;;;;;;;2.23;2.00;;;21.00;54.60;;;;;;6168829;23;20369;-90
2022/10/05 00:09:59;;;;;;;3.83;2.33;;;21.00;54.60;;;;;;6166973;23;20372;-91
2022/10/05 00:12:28;;;;;;;4.33;2.37;;;21.00;54.60;;;;;;6166727;23;20460;-92
2022/10/05 00:14:58;;;;;;;3.90;2.47;;;21.00;54.60;;;;;;6168861;23;20398;-91
2022/10/05 00:17:26;;;;;;;2.80;2.07;;;21.00;54.60;;;;;;6167821;23;20379;-91
2022/10/05 00:19:52;;;;;;;3.20;2.20;;;21.00;54.60;;;;;;6168084;23;20489;-90
2022/10/05 00:22:21;;;;;;;2.27;1.87;;;21.00;54.60;;;;;;6167691;23;20371;-91
2022/10/05 00:24:50;;;;;;;4.20;2.33;;;21.00;54.60;;;;;;6167077;23;20783;-91
2022/10/05 00:27:19;;;;;;;6.73;2.43;;;20.90;54.50;;;;;;6165866;23;20383;-91
2022/10/05 00:29:50;;;;;;;3.63;2.40;;;21.00;54.60;;;;;;6165989;23;20376;-91
2022/10/05 00:32:16;;;;;;;3.43;2.50;;;21.00;54.60;;;;;;6165695;23;20721;-90
2022/10/05 00:34:43;;;;;;;2.43;1.57;;;21.00;54.60;;;;;;6165473;23;20788;-90
2022/10/05 00:37:09;;;;;;;3.70;2.67;;;21.00;54.60;;;;;;6165395;23;20384;-91
2022/10/05 00:39:37;;;;;;;2.87;1.90;;;21.00;54.60;;;;;;6165468;23;20390;-90
2022/10/05 00:42:12;;;;;;;3.13;1.93;;;21.00;54.60;;;;;;6165164;23;20194;-90
2022/10/05 00:45:03;;;;;;;3.17;1.97;;;21.00;54.60;;;;;;6165387;23;20376;-90
2022/10/05 00:47:38;;;;;;;2.60;1.97;;;21.00;54.60;;;;;;6166115;23;20380;-90
2022/10/05 00:50:32;;;;;;;2.70;1.70;;;21.00;54.50;;;;;;6166565;23;20447;-90
2022/10/05 00:53:29;;;;;;;2.77;2.10;;;21.00;54.60;;;;;;6166822;23;20391;-91
2022/10/05 00:56:13;;;;;;;2.83;1.57;;;21.00;54.60;;;;;;6167736;23;20363;-90
2022/10/05 00:59:06;;;;;;;3.13;2.00;;;20.90;54.50;;;;;;6166768;23;20392;-91
2022/10/05 01:01:53;;;;;;;2.70;2.13;;;20.90;54.50;;;;;;6170759;23;20408;-90
2022/10/05 01:04:51;;;;;;;2.37;1.57;;;20.90;54.60;;;;;;6168443;23;20432;-90
2022/10/05 01:07:35;;;;;;;2.33;2.10;;;20.90;54.60;;;;;;6166866;23;20384;-90
2022/10/05 01:10:16;;;;;;;2.10;1.50;;;20.90;54.60;;;;;;6169502;23;20399;-90
2022/10/05 01:12:45;;;;;;;1.80;1.40;;;20.90;54.60;;;;;;6166921;23;20636;-90
2022/10/05 01:15:26;;;;;;;4.43;2.07;;;20.90;54.50;;;;;;6167382;23;20476;-90
2022/10/05 01:18:23;;;;;;;2.00;1.80;;;20.90;54.50;;;;;;6170259;23;20395;-90
2022/10/05 01:21:07;;;;;;;3.60;1.97;;;20.90;54.50;;;;;;6181746;23;20436;-90
2022/10/05 01:23:41;;;;;;;1.87;1.70;;;20.90;54.50;;;;;;6166734;23;20384;-88
2022/10/05 01:26:44;;;;;;;1.90;1.70;;;20.90;54.50;;;;;;6166910;23;20387;-89
2022/10/05 01:29:24;;;;;;;2.30;1.60;;;20.90;54.50;;;;;;6166252;23;20379;-89
2022/10/05 01:32:19;;;;;;;2.40;2.17;;;20.90;54.80;;;;;;6165990;23;20829;-89
2022/10/05 01:35:09;;;;;;;2.13;1.90;;;20.90;54.40;;;;;;6166865;23;20380;-90
2022/10/05 01:37:52;;;;;;;1.67;1.57;;;20.90;54.50;;;;;;6167178;23;20467;-89
2022/10/05 01:40:23;;;;;;;2.17;1.97;;;20.90;54.50;;;;;;6166897;23;20427;-89
2022/10/05 01:43:07;;;;;;;1.83;1.63;;;20.90;54.50;;;;;;6166568;23;20613;-90
2022/10/05 01:46:03;;;;;;;3.53;2.10;;;20.90;54.50;;;;;;6166521;23;20379;-89
2022/10/05 01:48:47;;;;;;;2.37;1.80;;;20.90;54.50;;;;;;6166374;23;20426;-91
2022/10/05 01:51:13;;;;;;;2.43;1.80;;;20.90;54.50;;;;;;6168014;23;20353;-90
2022/10/05 01:54:19;;;;;;;4.07;2.73;;;20.90;54.50;;;;;;6165567;23;20391;-91
2022/10/05 01:57:23;;;;;;;2.10;1.70;;;20.90;54.50;;;;;;6166165;23;20155;-91
2022/10/05 02:03:10;;;;;;;3.20;1.83;;;20.90;54.50;;;;;;6111427;23;20373;-90
2022/10/05 02:05:39;;;;;;;4.03;1.93;;;20.90;54.60;;;;;;6170967;23;20398;-90
2022/10/05 02:08:13;;;;;;;2.73;1.63;;;20.90;54.50;;;;;;6168393;23;20447;-90
2022/10/05 02:11:06;;;;;;;2.13;1.60;;;20.90;54.50;;;;;;6167966;23;20442;-91
2022/10/05 02:13:55;;;;;;;1.80;1.50;;;20.90;54.50;;;;;;6168515;23;20388;-90
2022/10/05 02:16:41;;;;;;;2.17;1.83;;;20.90;54.50;;;;;;6168205;23;20431;-90
2022/10/05 02:19:16;;;;;;;2.27;1.87;;;20.90;54.50;;;;;;6170803;23;20633;-90
2022/10/05 02:21:46;;;;;;;2.00;1.80;;;20.90;54.50;;;;;;6168134;23;20430;-90
2022/10/05 02:24:19;;;;;;;2.40;1.50;;;20.90;54.50;;;;;;6165652;23;20447;-90
2022/10/05 02:26:46;;;;;;;1.90;1.70;;;20.90;54.40;;;;;;6165754;23;20380;-89
2022/10/05 02:29:23;;;;;;;2.00;1.80;;;20.90;54.40;;;;;;6166103;23;20412;-90
2022/10/05 02:32:14;;;;;;;2.10;1.57;;;20.90;54.40;;;;;;6165998;23;20429;-90
2022/10/05 02:34:43;;;;;;;2.53;2.27;;;20.90;54.40;;;;;;6165766;23;20407;-90
2022/10/05 02:37:33;;;;;;;2.40;1.83;;;20.90;54.40;;;;;;6165338;23;20388;-90
2022/10/05 02:40:25;;;;;;;1.70;1.47;;;20.90;54.40;;;;;;6165137;23;20448;-90
2022/10/05 02:43:07;;;;;;;2.03;1.60;;;20.90;54.40;;;;;;6165958;23;20463;-90
2022/10/05 02:45:39;;;;;;;2.30;1.30;;;20.90;54.40;;;;;;6166085;23;20372;-89
2022/10/05 02:48:19;;;;;;;3.40;1.60;;;20.80;54.40;;;;;;6166932;23;20468;-89
2022/10/05 02:51:21;;;;;;;2.13;1.80;;;20.80;54.40;;;;;;6165233;23;20383;-89
2022/10/05 02:53:56;;;;;;;1.77;1.53;;;20.80;54.40;;;;;;6167219;23;20443;-89
2022/10/05 02:56:40;;;;;;;3.00;1.70;;;20.80;54.40;;;;;;6165492;23;20455;-89
2022/10/05 02:59:22;;;;;;;2.63;1.63;;;20.80;54.50;;;;;;6165941;23;20400;-89
2022/10/05 03:02:00;;;;;;;2.20;1.63;;;20.80;54.50;;;;;;6165973;23;20395;-89
2022/10/05 03:04:51;;;;;;;2.63;1.70;;;20.80;54.50;;;;;;6167192;23;20459;-89
2022/10/05 03:07:23;;;;;;;2.33;1.80;;;20.80;54.50;;;;;;6171444;23;20546;-89
2022/10/05 03:09:52;;;;;;;2.00;1.80;;;20.80;54.50;;;;;;6166306;23;20373;-89
2022/10/05 03:12:41;;;;;;;3.37;1.80;;;20.80;54.50;;;;;;6168461;23;20383;-90
2022/10/05 03:15:25;;;;;;;1.70;1.60;;;20.80;54.50;;;;;;6168950;23;20399;-90
2022/10/05 03:18:18;;;;;;;1.77;1.50;;;20.80;54.50;;;;;;6167130;23;20376;-90
2022/10/05 03:21:10;;;;;;;2.47;1.77;;;20.80;54.50;;;;;;6169311;23;20472;-90
2022/10/05 03:23:51;;;;;;;3.70;2.10;;;20.80;54.50;;;;;;6171160;23;20444;-90
2022/10/05 03:26:20;;;;;;;2.00;1.53;;;20.80;54.60;;;;;;6166351;23;20388;-90
2022/10/05 03:28:59;;;;;;;3.10;1.80;;;20.70;54.50;;;;;;6167065;23;20365;-90
2022/10/05 03:31:58;;;;;;;2.67;1.87;;;20.80;54.60;;;;;;6165817;23;20383;-90
2022/10/05 03:34:32;;;;;;;2.40;2.00;;;20.80;54.60;;;;;;6165805;23;20383;-90
2022/10/05 03:37:01;;;;;;;2.73;1.90;;;20.70;54.50;;;;;;6166445;23;20444;-90
2022/10/05 03:39:39;;;;;;;2.67;2.20;;;20.70;54.50;;;;;;6165168;23;20380;-90
2022/10/05 03:42:35;;;;;;;2.77;1.50;;;20.70;54.50;;;;;;6167303;23;20365;-90
2022/10/05 03:45:43;;;;;;;1.50;1.40;;;20.80;54.60;;;;;;6173433;23;20430;-91
2022/10/05 03:48:15;;;;;;;1.93;1.37;;;20.70;54.50;;;;;;6132819;23;20379;-90
2022/10/05 03:50:50;;;;;;;3.70;1.70;;;20.70;54.60;;;;;;6198528;23;20395;-90
2022/10/05 03:53:31;;;;;;;2.97;1.80;;;20.70;54.60;;;;;;6173512;23;20371;-90
2022/10/05 03:56:04;;;;;;;2.33;2.00;;;20.70;54.60;;;;;;6173580;23;20410;-90
2022/10/05 03:58:43;;;;;;;2.43;1.70;;;20.70;54.60;;;;;;6198715;23;20367;-90
2022/10/05 04:01:16;;;;;;;1.70;1.47;;;20.70;54.50;;;;;;6198845;23;20418;-91
2022/10/05 04:03:49;;;;;;;2.60;1.60;;;20.70;54.60;;;;;;6174151;23;20367;-90
2022/10/05 04:06:33;;;;;;;1.90;1.80;;;20.70;54.60;;;;;;6174438;23;20377;-90
2022/10/05 04:09:17;;;;;;;2.70;1.40;;;20.70;54.60;;;;;;6178170;23;20383;-90
2022/10/05 04:12:01;;;;;;;2.20;1.70;;;20.70;54.60;;;;;;6199418;23;20409;-90
2022/10/05 04:14:54;;;;;;;1.80;1.50;;;20.70;54.60;;;;;;6174905;23;20390;-91
2022/10/05 04:17:43;;;;;;;;;;;;;;;;;;;;;
2022/10/05 04:27:18;;;;;;;2.03;1.60;;;20.70;54.70;;;;;;6109206;23;20357;-91
2022/10/05 04:30:14;;;;;;;1.50;1.40;;;20.60;54.60;;;;;;6085411;23;20382;-90
2022/10/05 04:32:44;;;;;;;3.00;1.87;;;20.60;54.60;;;;;;6085736;23;20384;-91
2022/10/05 04:35:47;;;;;;;1.90;1.60;;;20.60;54.60;;;;;;6084286;23;20393;-90
2022/10/05 04:38:49;;;;;;;3.33;1.77;;;20.70;54.80;;;;;;6085028;23;20389;-91
2022/10/05 04:41:17;;;;;;;2.30;1.70;;;20.60;54.60;;;;;;6108493;23;20680;-90
2022/10/05 04:44:02;;;;;;;1.60;1.33;;;20.60;55.30;;;;;;6085023;23;20394;-91
2022/10/05 04:46:42;;;;;;;2.50;2.07;;;20.60;54.70;;;;;;6084315;23;20385;-91
2022/10/05 04:49:26;;;;;;;3.10;1.63;;;20.60;54.70;;;;;;6109763;23;20474;-91
2022/10/05 04:51:57;;;;;;;2.50;1.70;;;20.60;54.70;;;;;;6084780;23;20374;-90
2022/10/05 04:54:38;;;;;;;2.27;1.97;;;20.60;54.80;;;;;;6108792;23;20379;-90
2022/10/05 04:57:12;;;;;;;3.80;1.90;;;20.60;54.70;;;;;;6085334;23;20413;-91
2022/10/05 05:00:04;;;;;;;1.87;1.30;;;20.60;54.70;;;;;;6050302;23;20402;-91
2022/10/05 05:02:39;;;;;;;2.07;1.43;;;20.60;54.80;;;;;;6164032;23;20384;-90
2022/10/05 05:05:23;;;;;;;4.83;2.00;;;20.60;54.80;;;;;;6164791;23;20384;-91
2022/10/05 05:08:21;;;;;;;1.67;1.40;;;20.60;54.80;;;;;;6134417;23;20708;-90
2022/10/05 05:14:33;;;;;;;1.90;1.47;;;20.60;54.80;;;;;;6135909;23;20364;-92
2022/10/05 05:17:40;;;;;;;3.03;1.70;;;20.60;54.80;;;;;;6137533;23;20354;-92
2022/10/05 05:23:48;;;;;;;2.20;1.90;;;20.60;54.90;;;;;;6137831;23;20383;-92
2022/10/05 05:26:27;;;;;;;2.23;1.80;;;20.60;54.90;;;;;;6138726;23;20402;-91
2022/10/05 05:29:20;;;;;;;1.63;1.50;;;20.60;54.90;;;;;;6134748;23;20460;-92
2022/10/05 05:32:35;;;;;;;2.10;1.67;;;20.60;54.90;;;;;;6134382;23;20376;-91
2022/10/05 05:35:36;;;;;;;2.50;1.90;;;20.60;54.90;;;;;;6085016;23;20476;-92
2022/10/05 05:38:33;;;;;;;2.43;1.50;;;20.60;55.00;;;;;;6136221;23;20392;-92
2022/10/05 05:41:33;;;;;;;3.30;1.67;;;20.60;54.90;;;;;;6135568;23;20413;-92
2022/10/05 05:44:37;;;;;;;2.07;1.73;;;20.60;54.90;;;;;;6135770;23;20369;-92
2022/10/05 05:47:24;;;;;;;1.93;1.73;;;20.60;54.90;;;;;;6024661;23;20419;-92
2022/10/05 05:50:29;;;;;;;2.50;1.60;;;20.60;55.50;;;;;;6047708;23;20379;-91
2022/10/05 05:53:07;;;;;;;4.40;1.53;;;20.60;54.90;;;;;;6024182;23;20386;-91
2022/10/05 05:55:39;;;;;;;2.00;1.70;;;20.60;54.90;;;;;;6047718;23;20372;-91
2022/10/05 05:58:41;;;;;;;1.67;1.50;;;20.60;54.90;;;;;;6048494;23;20443;-91
2022/10/05 06:02:03;;;;;;;2.17;1.60;;;20.60;54.90;;;;;;6024797;23;20741;-92
2022/10/05 06:15:52;;;;;;;1.90;1.50;;;20.50;54.90;;;;;;5997936;23;20424;-92
2022/10/05 06:18:21;;;;;;;2.90;1.63;;;20.50;55.00;;;;;;5902039;24;20384;-91
2022/10/05 06:21:00;;;;;;;3.43;2.00;;;20.50;55.10;;;;;;6000139;24;20472;-91
2022/10/05 06:33:52;;;;;;;1.97;1.40;;;20.50;55.60;;;;;;6137220;23;20482;-91
2022/10/05 06:40:03;;;;;;;3.50;1.93;;;20.50;55.20;;;;;;6144018;23;20385;-90
2022/10/05 06:42:46;;;;;;;2.90;1.70;;;20.50;55.20;;;;;;6136012;23;20370;-91
2022/10/05 06:46:01;;;;;;;12.33;2.47;;;20.50;55.30;;;;;;6136098;23;20365;-91
2022/10/05 06:52:13;;;;;;;;;;;;;;;;;;;;;
2022/10/05 06:55:11;;;;;;;;;;;;;;;;;;;;;
2022/10/05 07:01:19;;;;;;;;;;;;;;;;;;;;;
2022/10/05 07:07:22;;;;;;;;;;;;;;;;;;;;;
2022/10/05 07:10:19;;;;;;;1.53;1.43;;;20.60;55.50;;;;;;6136676;23;20381;-92
2022/10/05 07:16:47;;;;;;;;;;;;;;;;;;;;;
2022/10/05 07:19:34;;;;;;;3.80;2.20;;;20.60;55.50;;;;;;6138003;23;20361;-92
2022/10/05 07:22:44;;;;;;;3.17;1.70;;;20.60;55.50;;;;;;6139179;23;20434;-92
2022/10/05 07:26:03;;;;;;;2.00;1.80;;;20.60;55.60;;;;;;6135094;23;20381;-92
2022/10/05 07:39:45;;;;;;;3.17;1.60;;;20.50;55.70;;;;;;6075810;23;20377;-96
2022/10/05 07:42:24;;;;;;;2.10;1.50;;;20.50;55.60;;;;;;6053317;23;20390;-93
2022/10/05 07:49:04;;;;;;;;;;;;;;;;;;;;;
2022/10/05 07:51:39;;;;;;;1.77;1.40;;;20.50;55.70;;;;;;5935667;24;20398;-92
2022/10/05 07:54:35;;;;;;;2.30;1.43;;;20.50;55.60;;;;;;5987625;23;20818;-92
2022/10/05 07:57:06;;;;;;;1.73;1.30;;;20.50;55.50;;;;;;6135506;23;20388;-92
2022/10/05 07:59:50;;;;;;;;;;;;;;;;;;;;;
2022/10/05 08:02:41;;;;;;;2.87;1.40;;;20.60;55.70;;;;;;6136261;23;20400;-92
2022/10/05 08:05:29;;;;;;;3.23;1.50;;;20.60;55.60;;;;;;6135467;23;20419;-92
2022/10/05 08:09:16;;;;;;;;;;;;;;;;;;;;;
2022/10/05 08:16:00;;;;;;;1.30;1.20;;;20.60;55.60;;;;;;6111489;23;20376;-92
2022/10/05 08:18:13;;;;;;;2.50;1.90;;;20.50;55.60;;;;;;6100199;23;20386;-91
2022/10/05 08:21:10;;;;;;;2.20;1.20;;;20.50;55.60;;;;;;6111583;23;20430;-95
2022/10/05 08:24:00;;;;;;;;;;;;;;;;;;;;;
2022/10/05 08:26:40;;;;;;;3.33;1.73;;;20.60;55.70;;;;;;6109100;23;20420;-92
2022/10/05 08:36:34;;;;;;;1.70;1.30;;;20.60;55.70;;;;;;6080142;23;20363;-92
2022/10/05 08:39:56;;;;;;;;;;;;;;;;;;;;;
2022/10/05 08:42:41;;;;;;;1.83;1.17;;;20.60;55.80;;;;;;6061567;23;20414;-93
2022/10/05 08:45:46;;;;;;;2.17;1.60;;;20.50;55.80;;;;;;6081815;23;20363;-94
2022/10/05 08:52:18;;;;;;;3.57;1.73;;;20.60;56.00;;;;;;6106577;23;20735;-92
2022/10/05 08:59:15;;;;;;;;;;;;;;;;;;;;;
2022/10/05 09:06:06;;;;;;;3.17;1.67;;;20.60;56.20;;;;;;6051252;23;20375;-92
2022/10/05 09:09:16;;;;;;;5.10;1.93;;;20.60;56.40;;;;;;6029251;23;20387;-92
2022/10/05 09:15:55;;;;;;;3.13;1.60;;;20.60;56.40;;;;;;6012014;23;20387;-92
2022/10/05 09:18:48;;;;;;;1.60;1.27;;;20.60;56.40;;;;;;6056715;23;20378;-93
2022/10/05 09:36:12;;;;;;;1.90;1.40;;;20.60;56.50;;;;;;5941335;24;20382;-91
2022/10/05 09:42:52;;;;;;;2.80;1.60;;;20.60;56.40;;;;;;5969912;24;20382;-91
2022/10/05 09:46:11;;;;;;;1.70;1.40;;;20.60;56.40;;;;;;5951349;24;20772;-91
2022/10/05 09:48:42;;;;;;;1.60;1.30;;;20.60;56.40;;;;;;5995986;24;20369;-91
2022/10/05 09:51:19;;;;;;;2.00;1.33;;;20.60;56.30;;;;;;5986650;24;20477;-91
2022/10/05 09:54:15;;;;;;;2.60;1.60;;;20.60;56.40;;;;;;5940206;23;20394;-91
2022/10/05 09:56:59;;;;;;;1.77;1.40;;;20.60;56.40;;;;;;5962190;24;20390;-92
2022/10/05 09:59:59;;;;;;;1.67;1.20;;;20.60;56.30;;;;;;6106221;23;20485;-92
2022/10/05 10:08:07;;;;;;;1.80;1.50;;;20.60;56.30;;;;;;6128483;22;20452;-92
2022/10/05 10:10:54;;;;;;;1.63;1.10;;;20.60;56.30;;;;;;6134411;23;20395;-92
2022/10/05 10:13:38;;;;;;;8.57;1.40;;;20.60;57.00;;;;;;6135471;23;20718;-92
2022/10/05 10:16:32;;;;;;;2.20;1.67;;;20.60;56.40;;;;;;6137229;23;20389;-91
2022/10/05 10:19:35;;;;;;;1.50;1.30;;;20.70;56.40;;;;;;6140585;23;20384;-92
2022/10/05 10:22:27;;;;;;;1.70;1.20;;;20.60;56.30;;;;;;6136527;23;20377;-91
2022/10/05 10:29:05;;;;;;;3.77;1.83;;;20.60;56.30;;;;;;6138215;23;20368;-91
2022/10/05 10:32:09;;;;;;;2.03;1.40;;;20.60;56.40;;;;;;6169399;23;20364;-92
2022/10/05 10:34:57;;;;;;;1.63;1.17;;;20.60;56.20;;;;;;6171712;23;20394;-93
2022/10/05 10:37:26;;;;;;;1.97;1.50;;;20.60;56.20;;;;;;6144293;23;20791;-91
2022/10/05 10:40:28;;;;;;;2.93;1.53;;;20.60;56.20;;;;;;6143874;23;20787;-91
2022/10/05 10:43:27;;;;;;;3.17;1.40;;;20.60;56.30;;;;;;6164170;23;20367;-92
2022/10/05 10:46:30;;;;;;;2.73;2.00;;;20.60;56.30;;;;;;6168038;23;20348;-92
2022/10/05 10:49:10;;;;;;;1.57;1.10;;;20.60;56.30;;;;;;6168127;23;20425;-92
2022/10/05 10:52:16;;;;;;;3.10;1.60;;;20.60;56.40;;;;;;6169075;23;20387;-92
2022/10/05 10:55:25;;;;;;;1.67;1.20;;;20.60;56.40;;;;;;6163551;23;20654;-91
2022/10/05 10:58:20;;;;;;;1.70;1.43;;;20.60;56.40;;;;;;6143255;23;20395;-91
2022/10/05 11:00:53;;;;;;;2.67;1.50;;;20.60;56.40;;;;;;6143080;23;20423;-92
2022/10/05 11:04:08;;;;;;;3.30;1.40;;;20.60;57.00;;;;;;6168947;23;20357;-92
2022/10/05 11:10:09;;;;;;;1.87;1.20;;;20.60;56.40;;;;;;6136031;23;20419;-92
2022/10/05 11:16:25;;;;;;;2.73;1.37;;;20.70;56.50;;;;;;6087279;23;20384;-92
2022/10/05 11:19:09;;;;;;;2.97;2.03;;;20.60;56.40;;;;;;6137851;23;20360;-91
2022/10/05 11:29:25;;;;;;;2.40;1.80;;;20.60;56.30;;;;;;6203661;23;20348;-91
2022/10/05 11:42:35;;;;;;;27.77;15.60;;;20.60;56.30;;;;;;6197532;23;20421;-92
2022/10/05 11:45:25;;;;;;;19.20;14.23;;;20.60;56.40;;;;;;6172887;23;20372;-91
2022/10/05 11:48:02;;;;;;;24.50;16.40;;;20.60;56.40;;;;;;6197735;23;20446;-91
2022/10/05 11:51:02;;;;;;;26.87;17.90;;;20.70;56.40;;;;;;6197832;23;20347;-92
2022/10/05 11:53:57;;;;;;;26.13;15.67;;;20.70;56.60;;;;;;6171364;23;20382;-93
2022/10/05 11:56:43;;;;;;;23.07;15.70;;;20.70;56.60;;;;;;6183823;23;20379;-90
2022/10/05 11:59:55;;;;;;;24.57;15.53;;;20.70;56.60;;;;;;6145148;23;20373;-91
2022/10/05 12:02:58;;;;;;;29.17;13.53;;;20.70;56.60;;;;;;6155995;23;20400;-91
2022/10/05 12:05:35;;;;;;;25.90;13.63;;;20.70;56.70;;;;;;6135560;23;20373;-92
2022/10/05 12:08:32;;;;;;;20.93;14.23;;;20.70;56.80;;;;;;6134921;23;20401;-91
2022/10/05 12:11:06;;;;;;;20.17;13.30;;;20.70;56.80;;;;;;6135927;23;20366;-93
2022/10/05 12:13:50;;;;;;;20.40;11.83;;;20.70;57.00;;;;;;6134840;23;20384;-92
2022/10/05 12:16:34;;;;;;;23.80;12.87;;;20.70;57.00;;;;;;6134154;23;20385;-92
2022/10/05 12:19:15;;;;;;;25.00;12.10;;;20.80;57.20;;;;;;6136644;23;20357;-90
2022/10/05 12:21:55;;;;;;;27.23;11.73;;;20.70;56.90;;;;;;6137961;23;20417;-91
2022/10/05 12:24:49;;;;;;;16.93;10.60;;;20.80;56.90;;;;;;6136596;23;20395;-92
2022/10/05 12:27:26;;;;;;;19.03;11.30;;;20.70;56.90;;;;;;6136397;23;20444;-92
2022/10/05 12:30:10;;;;;;;17.70;10.07;;;20.80;57.10;;;;;;6139519;23;20373;-90
2022/10/05 12:33:38;;;;;;;16.50;9.70;;;20.80;57.10;;;;;;6136852;23;20428;-92
2022/10/05 12:39:57;;;;;;;18.30;9.97;;;20.80;57.20;;;;;;6168646;23;20406;-91
2022/10/05 12:42:35;;;;;;;18.67;9.23;;;20.70;57.30;;;;;;6129812;23;20399;-91
2022/10/05 12:48:58;;;;;;;;;;;;;;;;;;;;;
2022/10/05 12:52:10;;;;;;;;;;;;;;;;;;;;;
2022/10/05 12:54:58;;;;;;;15.17;8.03;;;20.70;57.50;;;;;;6167953;23;20405;-91
2022/10/05 12:57:38;;;;;;;;;;;;;;;;;;;;;
2022/10/05 13:00:11;;;;;;;14.50;8.00;;;20.70;57.40;;;;;;6168276;23;20442;-91
2022/10/05 13:02:59;;;;;;;16.17;8.90;;;20.80;57.50;;;;;;6167686;23;20415;-91
2022/10/05 13:05:35;;;;;;;13.33;7.70;;;20.80;57.50;;;;;;6162501;23;20476;-91
2022/10/05 13:08:23;;;;;;;15.47;8.00;;;20.80;57.40;;;;;;6135044;23;20447;-91
2022/10/05 13:11:15;;;;;;;16.10;9.73;;;20.80;57.40;;;;;;6135333;23;20837;-91
2022/10/05 13:14:06;;;;;;;15.57;8.17;;;20.80;57.40;;;;;;6149740;23;20382;-93
2022/10/05 13:17:07;;;;;;;15.90;8.00;;;20.80;57.30;;;;;;6135187;23;20404;-91
2022/10/05 13:19:52;;;;;;;11.40;7.30;;;20.80;57.30;;;;;;6135032;23;20785;-93
2022/10/05 13:32:51;;;;;;;12.00;7.30;;;20.70;57.40;;;;;;6136978;23;20356;-91
2022/10/05 13:35:42;;;;;;;15.93;6.70;;;20.70;57.40;;;;;;6135479;23;20353;-91
2022/10/05 13:38:29;;;;;;;15.43;7.93;;;20.70;57.40;;;;;;6138081;23;20381;-92
2022/10/05 13:41:39;;;;;;;12.47;6.50;;;20.70;57.30;;;;;;6135990;23;20413;-92
2022/10/05 13:44:43;;;;;;;14.77;7.47;;;20.70;57.30;;;;;;6135477;23;20365;-92
2022/10/05 13:47:52;;;;;;;;;;;;;;;;;;;;;
2022/10/05 13:51:27;;;;;;;;;;;;;;;;;;;;;
2022/10/05 13:54:31;;;;;;;8.23;5.60;;;20.70;57.30;;;;;;6138200;23;20411;-92
2022/10/05 13:57:44;;;;;;;8.77;5.90;;;20.70;57.30;;;;;;6143944;23;20466;-92
2022/10/05 14:18:30;;;;;;;12.47;6.67;;;20.70;57.20;;;;;;5940429;23;20370;-92
2022/10/05 14:21:30;;;;;;;10.77;5.57;;;20.70;57.20;;;;;;5937803;24;20431;-93
2022/10/05 14:27:35;;;;;;;9.43;5.90;;;20.70;57.20;;;;;;5941554;24;20363;-90
2022/10/05 14:30:14;;;;;;;10.17;5.50;;;20.70;57.20;;;;;;5967216;24;20445;-90
2022/10/05 14:39:41;;;;;;;10.40;6.43;;;20.70;57.10;;;;;;5917508;24;20433;-90
2022/10/05 14:42:21;;;;;;;9.13;5.13;;;20.70;57.10;;;;;;5940318;24;20387;-90
2022/10/05 14:45:11;;;;;;;8.03;4.90;;;20.70;57.00;;;;;;5939921;24;20408;-91
2022/10/05 14:47:59;;;;;;;7.40;4.83;;;20.70;57.00;;;;;;5940322;24;20383;-90
2022/10/05 14:50:28;;;;;;;9.97;4.63;;;20.70;57.00;;;;;;5950322;24;20397;-91
2022/10/05 14:53:12;;;;;;;8.33;4.83;;;20.70;57.00;;;;;;5945161;24;20425;-90
2022/10/05 14:56:07;;;;;;;8.57;4.27;;;20.70;57.00;;;;;;5991248;24;20386;-89
2022/10/05 14:58:57;;;;;;;8.07;5.87;;;20.70;56.80;;;;;;5980728;23;20405;-90
2022/10/05 15:01:38;;;;;;;9.23;4.70;;;20.70;56.80;;;;;;6076259;23;20435;-90
2022/10/05 15:04:23;;;;;;;8.90;5.70;;;20.70;56.80;;;;;;6028514;23;20569;-90
2022/10/05 15:07:22;;;;;;;7.53;4.60;;;20.70;56.80;;;;;;6076327;23;20455;-90
2022/10/05 15:10:15;;;;;;;8.33;3.90;;;20.70;56.80;;;;;;6108369;23;20484;-90
2022/10/05 15:12:47;;;;;;;8.63;4.70;;;20.70;56.90;;;;;;6178589;23;20381;-89
2022/10/05 15:15:46;;;;;;;5.40;4.60;;;20.70;56.90;;;;;;6135497;23;20378;-91
2022/10/05 15:18:51;;;;;;;6.60;4.33;;;20.70;56.70;;;;;;6136690;23;20461;-92
2022/10/05 15:25:55;;;;;;;7.00;4.47;;;20.70;56.70;;;;;;6208231;23;20408;-91
2022/10/05 15:28:31;;;;;;;6.83;4.60;;;20.70;56.80;;;;;;5992446;24;20374;-91
2022/10/05 15:31:13;;;;;;;;;;;;;;;;;;;;;
2022/10/05 15:33:49;;;;;;;7.20;3.87;;;20.60;56.70;;;;;;5994897;24;20377;-91
2022/10/05 15:36:55;;;;;;;6.57;4.00;;;20.60;56.70;;;;;;5992219;24;20390;-91
2022/10/05 15:39:44;;;;;;;5.23;3.63;;;20.70;56.80;;;;;;5994838;23;20385;-90
2022/10/05 15:42:14;;;;;;;5.13;3.57;;;20.60;56.70;;;;;;5971618;23;20421;-89
2022/10/05 15:45:04;;;;;;;4.60;3.63;;;20.60;56.70;;;;;;5993582;23;20675;-90
2022/10/05 15:47:58;;;;;;;5.93;4.10;;;20.70;56.70;;;;;;5992030;24;20369;-90
2022/10/05 15:50:54;;;;;;;5.50;3.93;;;20.70;56.80;;;;;;5991139;23;20816;-90
2022/10/05 15:57:11;;;;;;;4.90;3.93;;;20.70;56.80;;;;;;5990688;24;20403;-91
2022/10/05 15:59:51;;;;;;;5.80;3.30;;;20.60;56.80;;;;;;5970091;23;20378;-91
2022/10/05 16:02:35;;;;;;;5.37;4.30;;;20.60;56.80;;;;;;5967277;23;20444;-91
2022/10/05 16:08:49;;;;;;;4.33;3.60;;;20.60;56.70;;;;;;6135203;23;20369;-91
2022/10/05 16:10:59;;;;;;;5.20;3.20;;;20.60;56.70;;;;;;6136155;23;20392;-91
2022/10/05 16:14:01;;;;;;;3.57;3.27;;;20.60;56.80;;;;;;6134408;23;20391;-90
2022/10/05 16:16:50;;;;;;;5.20;2.97;;;20.60;56.80;;;;;;6167367;23;20379;-91
2022/10/05 16:19:46;;;;;;;4.87;3.87;;;20.60;56.80;;;;;;6135816;23;20404;-91
2022/10/05 16:22:32;;;;;;;4.10;3.00;;;20.60;56.80;;;;;;6134838;23;20386;-91
2022/10/05 16:25:21;;;;;;;4.30;3.37;;;20.60;56.80;;;;;;6137229;23;20389;-91
2022/10/05 16:28:13;;;;;;;3.60;3.20;;;20.60;56.80;;;;;;6139578;23;20387;-90
2022/10/05 16:30:44;;;;;;;4.33;3.43;;;20.60;56.80;;;;;;6135435;23;20370;-91
2022/10/05 16:33:53;;;;;;;4.63;3.33;;;20.60;56.80;;;;;;6137016;23;20851;-91
2022/10/05 16:40:37;;;;;;;;;;;;;;;;;;;;;
2022/10/05 16:49:57;;;;;;;4.30;3.03;;;20.50;56.70;;;;;;6152084;23;20377;-93
2022/10/05 16:55:37;;;;;;;7.00;3.50;;;20.50;56.70;;;;;;6145164;23;20377;-92
2022/10/05 16:58:52;;;;;;;5.43;2.93;;;20.50;56.70;;;;;;6134120;23;20469;-92
2022/10/05 17:01:53;;;;;;;5.90;4.00;;;20.60;56.70;;;;;;6136795;23;20474;-93
2022/10/05 17:08:45;;;;;;;;;;;;;;;;;;;;;
2022/10/05 17:19:09;;;;;;;3.43;2.80;;;20.50;56.90;;;;;;6111302;23;20370;-92
2022/10/05 17:36:01;;;;;;;;;;;;;;;;;;;;;
2022/10/05 17:56:25;;;;;;;;;;;;;;;;;;;;;
2022/10/05 17:59:47;;;;;;;;;;;;;;;;;;;;;
2022/10/05 19:13:54;;;;;;;15.60;9.93;;;20.70;56.70;;;;;;6079702;23;20546;-91
2022/10/05 19:17:16;;;;;;;19.27;9.60;;;20.70;56.70;;;;;;6102712;23;20401;-91
2022/10/05 19:20:20;;;;;;;;;;;;;;;;;;;;;
2022/10/05 19:27:16;;;;;;;17.20;8.83;;;20.70;56.80;;;;;;6137702;23;20361;-92
2022/10/05 19:30:16;;;;;;;11.93;8.60;;;20.70;56.90;;;;;;6139401;23;20380;-91
2022/10/05 19:33:37;;;;;;;;;;;;;;;;;;;;;
2022/10/05 19:36:57;;;;;;;;;;;;;;;;;;;;;
2022/10/05 19:43:50;;;;;;;;;;;;;;;;;;;;;
2022/10/05 19:46:57;;;;;;;11.73;8.53;;;20.60;56.70;;;;;;6114647;23;20393;-92
2022/10/05 19:50:26;;;;;;;;;;;;;;;;;;;;;
2022/10/05 19:53:59;;;;;;;;;;;;;;;;;;;;;
2022/10/05 19:57:30;;;;;;;;;;;;;;;;;;;;;
2022/10/05 20:00:25;;;;;;;13.93;8.40;;;20.60;56.80;;;;;;6168457;23;20383;-91
2022/10/05 20:03:49;;;;;;;;;;;;;;;;;;;;;
2022/10/05 20:10:33;;;;;;;;;;;;;;;;;;;;;
2022/10/05 20:13:55;;;;;;;;;;;;;;;;;;;;;
2022/10/05 20:30:04;;;;;;;;;;;;;;;;;;;;;
2022/10/05 20:33:13;;;;;;;;;;;;;;;;;;;;;
2022/10/05 20:36:09;;;;;;;13.30;7.60;;;20.70;56.90;;;;;;6169609;23;20364;-92
2022/10/05 20:39:05;;;;;;;;;;;;;;;;;;;;;
2022/10/05 20:42:19;;;;;;;8.57;6.77;;;20.70;56.90;;;;;;6170382;23;20427;-91
2022/10/05 20:45:35;;;;;;;;;;;;;;;;;;;;;
2022/10/05 20:48:41;;;;;;;;;;;;;;;;;;;;;
2022/10/05 20:54:41;;;;;;;;;;;;;;;;;;;;;
2022/10/05 20:58:13;;;;;;;;;;;;;;;;;;;;;
2022/10/05 21:01:21;;;;;;;12.17;7.03;;;20.70;56.70;;;;;;6063568;23;20459;-92
2022/10/05 21:04:21;;;;;;;;;;;;;;;;;;;;;
2022/10/05 21:09:57;;;;;;;;;;;;;;;;;;;;;
2022/10/05 21:13:01;;;;;;;7.40;6.00;;;20.70;56.60;;;;;;6136091;23;20381;-91
2022/10/05 21:29:45;;;;;;;;;;;;;;;;;;;;;
2022/10/05 21:39:35;;;;;;;;;;;;;;;;;;;;;
2022/10/05 21:50:05;;;;;;;;;;;;;;;;;;;;;
2022/10/05 22:03:37;;;;;;;;;;;;;;;;;;;;;
2022/10/05 22:20:36;;;;;;;;;;;;;;;;;;;;;
2022/10/05 22:44:25;;;;;;;;;;;;;;;;;;;;;
2022/10/05 23:00:38;;;;;;;;;;;;;;;;;;;;;
2022/10/05 23:03:24;;;;;;;;;;;;;;;;;;;;;
2022/10/05 23:06:28;;;;;;;;;;;;;;;;;;;;;
2022/10/05 23:09:06;;;;;;;;;;;;;;;;;;;;;
2022/10/05 23:11:32;;;;;;;6.10;4.57;;;20.80;56.40;;;;;;5909043;24;20411;-90
2022/10/05 23:14:29;;;;;;;6.60;5.83;;;20.80;56.40;;;;;;6033191;23;20374;-91
2022/10/05 23:17:23;;;;;;;7.60;5.20;;;20.90;56.40;;;;;;5985299;23;20149;-90